Time;durP1;ratioP1;P1;durP2;ratioP2;P2;SDS_P1;SDS_P2;PMS_P1;PMS_P2;Temp;Humidity;BMP_temperature;BMP_pressure;BME280_temperature;BME280_humidity;BME280_pressure;Samples;Min_cycle;Max_cycle;Signal;HPM_P1;HPM_P2
2021/04/23 00:01:33;;;;;;;12.75;2.88;;;;;;;;;;4981252;28;20425;-87
2021/04/23 00:04:19;;;;;;;9.35;3.15;;;;;;;;;;4979783;28;20041;-86
2021/04/23 00:07:04;;;;;;;5.72;2.88;;;;;;;;;;4981328;28;20049;-87
2021/04/23 00:09:50;;;;;;;13.65;3.38;;;;;;;;;;4974685;28;20109;-87
2021/04/23 00:12:37;;;;;;;13.57;3.33;;;;;;;;;;4981781;28;20636;-87
2021/04/23 00:15:25;;;;;;;8.15;3.42;;;;;;;;;;4977344;28;20121;-88
2021/04/23 00:18:10;;;;;;;5.70;2.38;;;;;;;;;;4982435;28;20053;-87
2021/04/23 00:20:56;;;;;;;14.43;3.65;;;;;;;;;;4983938;28;20462;-87
2021/04/23 00:23:41;;;;;;;16.73;3.85;;;;;;;;;;4976850;28;20026;-86
2021/04/23 00:26:27;;;;;;;11.77;3.00;;;;;;;;;;4983037;28;20065;-87
2021/04/23 00:29:12;;;;;;;8.48;2.90;;;;;;;;;;4981234;28;20026;-86
2021/04/23 00:35:02;;;;;;;8.00;3.03;;;;;;;;;;4980105;28;20054;-87
2021/04/23 00:37:50;;;;;;;8.05;2.75;;;;;;;;;;4979176;28;20027;-87
2021/04/23 00:40:55;;;;;;;7.43;2.88;;;;;;;;;;4981926;28;20022;-88
2021/04/23 00:43:42;;;;;;;7.10;3.00;;;;;;;;;;4986642;28;20514;-88
2021/04/23 00:46:29;;;;;;;9.98;2.75;;;;;;;;;;4982700;28;20075;-88
2021/04/23 00:49:20;;;;;;;8.52;3.17;;;;;;;;;;4978245;28;20476;-87
2021/04/23 00:52:15;;;;;;;11.85;3.60;;;;;;;;;;4980757;28;20080;-87
2021/04/23 00:55:00;;;;;;;9.32;3.15;;;;;;;;;;4982122;28;20054;-87
2021/04/23 00:57:45;;;;;;;6.68;3.35;;;;;;;;;;4988189;28;20041;-85
2021/04/23 01:00:31;;;;;;;9.35;3.17;;;;;;;;;;4988358;28;20028;-87
2021/04/23 01:03:17;;;;;;;7.85;3.03;;;;;;;;;;4982323;28;20022;-86
2021/04/23 01:06:05;;;;;;;10.70;2.90;;;;;;;;;;4984757;28;20024;-87
2021/04/23 01:08:54;;;;;;;10.27;3.65;;;;;;;;;;4971235;28;20038;-88
2021/04/23 01:11:40;;;;;;;10.07;3.42;;;;;;;;;;4976674;28;20023;-88
2021/04/23 01:14:28;;;;;;;9.05;3.42;;;;;;;;;;4982472;28;20579;-88
2021/04/23 01:17:18;;;;;;;8.23;3.03;;;;;;;;;;4979174;28;20064;-87
2021/04/23 01:20:05;;;;;;;9.27;3.63;;;;;;;;;;4999808;28;20539;-88
2021/04/23 01:22:50;;;;;;;5.60;2.72;;;;;;;;;;4970245;28;20026;-87
2021/04/23 01:25:35;;;;;;;12.00;3.35;;;;;;;;;;4975475;28;20105;-87
2021/04/23 01:28:21;;;;;;;9.73;3.60;;;;;;;;;;4982910;28;20037;-87
2021/04/23 01:31:08;;;;;;;12.23;3.70;;;;;;;;;;4979113;28;20018;-88
2021/04/23 01:33:56;;;;;;;8.13;2.90;;;;;;;;;;4980578;28;20045;-90
2021/04/23 01:36:42;;;;;;;13.05;3.38;;;;;;;;;;4964782;28;20438;-88
2021/04/23 01:39:28;;;;;;;7.53;4.05;;;;;;;;;;4979127;28;20021;-89
2021/04/23 01:42:45;;;;;;;8.45;2.78;;;;;;;;;;4979397;28;20030;-89
2021/04/23 01:45:30;;;;;;;7.97;3.33;;;;;;;;;;4985142;28;20030;-88
2021/04/23 01:48:19;;;;;;;9.48;3.58;;;;;;;;;;4981570;28;20041;-89
2021/04/23 01:51:25;;;;;;;8.65;3.03;;;;;;;;;;4979024;28;20080;-88
2021/04/23 01:54:10;;;;;;;7.95;2.90;;;;;;;;;;4982029;28;20080;-87
2021/04/23 01:56:56;;;;;;;6.75;2.90;;;;;;;;;;4994337;28;20036;-87
2021/04/23 01:59:47;;;;;;;8.95;4.03;;;;;;;;;;5002664;28;20025;-88
2021/04/23 02:02:33;;;;;;;8.65;3.85;;;;;;;;;;4979847;28;20037;-87
2021/04/23 02:05:19;;;;;;;11.07;3.47;;;;;;;;;;4975007;28;20582;-87
2021/04/23 02:08:05;;;;;;;10.20;3.60;;;;;;;;;;4967416;28;20030;-87
2021/04/23 02:11:14;;;;;;;9.50;3.28;;;;;;;;;;4982874;28;20132;-86
2021/04/23 02:13:59;;;;;;;11.20;4.53;;;;;;;;;;4979321;28;20025;-89
2021/04/23 02:16:46;;;;;;;10.68;3.75;;;;;;;;;;4976862;28;20053;-87
2021/04/23 02:19:34;;;;;;;9.00;4.07;;;;;;;;;;4978680;28;20011;-87
2021/04/23 02:22:20;;;;;;;8.80;3.67;;;;;;;;;;4983726;28;20049;-87
2021/04/23 02:25:06;;;;;;;12.65;3.90;;;;;;;;;;4979127;28;20034;-87
2021/04/23 02:27:51;;;;;;;6.00;2.92;;;;;;;;;;4978340;28;20030;-87
2021/04/23 02:30:41;;;;;;;13.65;3.80;;;;;;;;;;4974949;28;20030;-88
2021/04/23 02:33:27;;;;;;;8.07;3.58;;;;;;;;;;4982806;28;20033;-88
2021/04/23 02:36:14;;;;;;;8.25;3.40;;;;;;;;;;4980920;28;20443;-86
2021/04/23 02:38:59;;;;;;;14.50;3.88;;;;;;;;;;4982490;28;20395;-86
2021/04/23 02:41:47;;;;;;;10.40;4.45;;;;;;;;;;4969329;28;20052;-87
2021/04/23 02:44:33;;;;;;;9.48;3.70;;;;;;;;;;4985675;28;20068;-88
2021/04/23 02:47:18;;;;;;;8.93;3.20;;;;;;;;;;4967019;28;20037;-88
2021/04/23 02:50:05;;;;;;;7.43;2.97;;;;;;;;;;4979928;28;20037;-88
2021/04/23 02:52:51;;;;;;;10.10;3.70;;;;;;;;;;4997095;28;20104;-87
2021/04/23 02:55:36;;;;;;;9.75;3.92;;;;;;;;;;4977357;28;20039;-88
2021/04/23 02:58:22;;;;;;;8.35;3.33;;;;;;;;;;4985208;28;20101;-87
2021/04/23 03:01:12;;;;;;;9.25;4.07;;;;;;;;;;4984632;28;20029;-87
2021/04/23 03:03:58;;;;;;;11.77;3.90;;;;;;;;;;4985794;28;20032;-87
2021/04/23 03:06:43;;;;;;;8.48;4.10;;;;;;;;;;4983704;28;20098;-88
2021/04/23 03:09:28;;;;;;;7.18;3.45;;;;;;;;;;4990083;28;20088;-88
2021/04/23 03:12:20;;;;;;;9.30;2.97;;;;;;;;;;4984295;28;20031;-88
2021/04/23 03:15:08;;;;;;;6.70;3.35;;;;;;;;;;4993319;28;20096;-88
2021/04/23 03:18:19;;;;;;;7.95;3.55;;;;;;;;;;4976845;28;20023;-90
2021/04/23 03:21:05;;;;;;;9.02;3.10;;;;;;;;;;4988583;28;20010;-89
2021/04/23 03:24:07;;;;;;;;;;;;;;;;;;;;;
2021/04/23 03:26:53;;;;;;;7.70;3.65;;;;;;;;;;4978393;28;20034;-88
2021/04/23 03:29:38;;;;;;;11.43;3.90;;;;;;;;;;4978351;28;20061;-89
2021/04/23 03:32:23;;;;;;;11.23;3.60;;;;;;;;;;4985004;28;20041;-89
2021/04/23 03:35:09;;;;;;;13.10;4.05;;;;;;;;;;4956749;28;20496;-89
2021/04/23 03:37:56;;;;;;;10.20;3.72;;;;;;;;;;4985176;28;20105;-89
2021/04/23 03:40:42;;;;;;;8.23;3.58;;;;;;;;;;4978042;28;20026;-88
2021/04/23 03:43:27;;;;;;;9.63;3.70;;;;;;;;;;4983854;28;20080;-89
2021/04/23 03:46:15;;;;;;;12.70;4.00;;;;;;;;;;4982201;28;20112;-89
2021/04/23 03:49:00;;;;;;;9.63;3.85;;;;;;;;;;4980962;28;20136;-88
2021/04/23 03:51:45;;;;;;;10.93;4.00;;;;;;;;;;4976094;28;20026;-88
2021/04/23 03:54:31;;;;;;;14.98;3.78;;;;;;;;;;4988268;28;20559;-88
2021/04/23 03:57:19;;;;;;;9.43;4.05;;;;;;;;;;4980197;28;20651;-88
2021/04/23 04:00:06;;;;;;;9.90;3.65;;;;;;;;;;4979869;28;20050;-88
2021/04/23 04:02:52;;;;;;;8.48;3.60;;;;;;;;;;4983187;28;20018;-88
2021/04/23 04:05:38;;;;;;;9.88;3.50;;;;;;;;;;4986441;28;20036;-87
2021/04/23 04:08:24;;;;;;;16.20;4.18;;;;;;;;;;4967763;28;20023;-88
2021/04/23 04:11:09;;;;;;;12.25;4.30;;;;;;;;;;4983416;28;20493;-88
2021/04/23 04:13:55;;;;;;;12.65;4.28;;;;;;;;;;4976580;28;20022;-88
2021/04/23 04:16:40;;;;;;;13.80;3.78;;;;;;;;;;4982727;28;20030;-86
2021/04/23 04:19:25;;;;;;;12.88;4.45;;;;;;;;;;4973679;28;20034;-88
2021/04/23 04:22:11;;;;;;;13.60;3.50;;;;;;;;;;4982315;28;20036;-87
2021/04/23 04:24:56;;;;;;;8.73;4.13;;;;;;;;;;4974148;28;20018;-87
2021/04/23 04:27:41;;;;;;;9.40;3.45;;;;;;;;;;4977286;28;20426;-88
2021/04/23 04:30:28;;;;;;;11.30;3.63;;;;;;;;;;4985151;28;20034;-87
2021/04/23 04:33:13;;;;;;;12.30;4.05;;;;;;;;;;4981277;28;20052;-87
2021/04/23 04:36:01;;;;;;;9.95;4.07;;;;;;;;;;4983494;28;20115;-88
2021/04/23 04:38:46;;;;;;;8.50;4.05;;;;;;;;;;4982894;28;20041;-85
2021/04/23 04:41:32;;;;;;;15.38;4.00;;;;;;;;;;4985393;28;20033;-88
2021/04/23 04:44:30;;;;;;;11.43;4.25;;;;;;;;;;4988413;28;20159;-87
2021/04/23 04:47:16;;;;;;;11.50;5.63;;;;;;;;;;4979922;28;20034;-86
2021/04/23 04:50:03;;;;;;;9.63;3.53;;;;;;;;;;4977368;28;20682;-86
2021/04/23 04:52:49;;;;;;;11.15;4.40;;;;;;;;;;4971304;28;20057;-87
2021/04/23 04:55:37;;;;;;;9.82;4.25;;;;;;;;;;4981210;28;20385;-86
2021/04/23 04:58:24;;;;;;;13.70;4.82;;;;;;;;;;4983718;28;20431;-87
2021/04/23 05:01:11;;;;;;;8.18;4.03;;;;;;;;;;4976120;28;20043;-86
2021/04/23 05:03:56;;;;;;;13.50;3.60;;;;;;;;;;4976214;28;20492;-86
2021/04/23 05:06:44;;;;;;;10.80;4.07;;;;;;;;;;4970825;28;20701;-88
2021/04/23 05:09:33;;;;;;;12.23;4.63;;;;;;;;;;4975521;28;20030;-89
2021/04/23 05:12:18;;;;;;;12.63;4.45;;;;;;;;;;4974936;28;20094;-88
2021/04/23 05:15:05;;;;;;;14.00;4.20;;;;;;;;;;4981122;28;20053;-87
2021/04/23 05:17:50;;;;;;;13.00;4.03;;;;;;;;;;4981873;28;20029;-88
2021/04/23 05:21:05;;;;;;;;;;;;;;;;;;;;;
2021/04/23 05:24:39;;;;;;;12.93;4.15;;;;;;;;;;4977428;28;20037;-89
2021/04/23 05:27:24;;;;;;;15.95;4.00;;;;;;;;;;4975254;28;20026;-86
2021/04/23 05:30:11;;;;;;;12.77;4.55;;;;;;;;;;4980120;28;20030;-87
2021/04/23 05:32:57;;;;;;;13.80;4.72;;;;;;;;;;4976664;28;20034;-85
2021/04/23 05:35:43;;;;;;;14.73;4.57;;;;;;;;;;4977334;28;20022;-82
2021/04/23 05:38:28;;;;;;;8.85;3.75;;;;;;;;;;4984044;28;20030;-82
2021/04/23 05:41:13;;;;;;;11.00;4.70;;;;;;;;;;4982438;28;20026;-82
2021/04/23 05:43:58;;;;;;;12.00;4.97;;;;;;;;;;4975450;28;20023;-83
2021/04/23 05:46:44;;;;;;;13.07;4.82;;;;;;;;;;4969646;28;20026;-83
2021/04/23 05:49:29;;;;;;;11.00;4.35;;;;;;;;;;4979627;28;20109;-84
2021/04/23 05:52:14;;;;;;;11.32;4.25;;;;;;;;;;4962899;28;20477;-82
2021/04/23 05:54:59;;;;;;;14.50;4.70;;;;;;;;;;4973475;28;20513;-82
2021/04/23 05:57:45;;;;;;;9.70;4.20;;;;;;;;;;4967093;28;20061;-82
2021/04/23 06:00:31;;;;;;;16.42;6.97;;;;;;;;;;4979366;28;20022;-84
2021/04/23 06:03:40;;;;;;;11.88;5.05;;;;;;;;;;4982797;28;20042;-92
2021/04/23 06:09:48;;;;;;;11.18;4.43;;;;;;;;;;4998667;28;20079;-83
2021/04/23 06:12:33;;;;;;;13.15;4.90;;;;;;;;;;4976751;28;20037;-87
2021/04/23 06:15:19;;;;;;;11.77;4.47;;;;;;;;;;4981446;28;20468;-87
2021/04/23 06:18:04;;;;;;;10.15;4.35;;;;;;;;;;4982154;28;20469;-87
2021/04/23 06:20:50;;;;;;;8.98;3.90;;;;;;;;;;4985539;28;20041;-89
2021/04/23 06:23:37;;;;;;;17.20;5.05;;;;;;;;;;4960630;28;20037;-88
2021/04/23 06:26:22;;;;;;;15.07;4.28;;;;;;;;;;4985989;28;20041;-87
2021/04/23 06:29:08;;;;;;;11.77;4.22;;;;;;;;;;4960409;28;20030;-86
2021/04/23 06:31:53;;;;;;;12.75;4.18;;;;;;;;;;4973591;28;20334;-88
2021/04/23 06:34:44;;;;;;;8.65;4.03;;;;;;;;;;4981898;28;20077;-89
2021/04/23 06:37:34;;;;;;;15.45;5.55;;;;;;;;;;4987019;28;20021;-88
2021/04/23 06:40:22;;;;;;;12.00;5.32;;;;;;;;;;4983417;28;20022;-88
2021/04/23 06:43:10;;;;;;;13.68;4.78;;;;;;;;;;4982880;28;20339;-87
2021/04/23 06:45:58;;;;;;;12.07;5.32;;;;;;;;;;4982419;28;20046;-89
2021/04/23 06:48:47;;;;;;;16.05;5.60;;;;;;;;;;4979881;28;20050;-86
2021/04/23 06:51:32;;;;;;;12.00;5.47;;;;;;;;;;4979530;28;20032;-85
2021/04/23 06:54:18;;;;;;;70.63;51.15;;;;;;;;;;4977398;28;20126;-84
2021/04/23 06:57:03;;;;;;;13.73;7.28;;;;;;;;;;4976873;28;20065;-86
2021/04/23 06:59:49;;;;;;;21.95;6.40;;;;;;;;;;4977022;28;20037;-86
2021/04/23 07:02:34;;;;;;;15.20;5.47;;;;;;;;;;4998693;28;20722;-85
2021/04/23 07:05:20;;;;;;;17.45;7.25;;;;;;;;;;4979919;28;20033;-86
2021/04/23 07:08:05;;;;;;;18.13;6.13;;;;;;;;;;4970339;28;20026;-87
2021/04/23 07:10:51;;;;;;;16.88;6.63;;;;;;;;;;4979621;28;20033;-88
2021/04/23 07:13:36;;;;;;;18.88;6.65;;;;;;;;;;4989328;28;20062;-86
2021/04/23 07:16:34;;;;;;;;;;;;;;;;;;;;;
2021/04/23 07:19:22;;;;;;;15.82;5.70;;;;;;;;;;4981579;28;20029;-86
2021/04/23 07:22:07;;;;;;;15.75;6.22;;;;;;;;;;4972931;28;20130;-86
2021/04/23 07:24:55;;;;;;;13.05;5.60;;;;;;;;;;4977244;28;20030;-87
2021/04/23 07:27:43;;;;;;;11.32;5.57;;;;;;;;;;4994898;28;20029;-89
2021/04/23 07:30:30;;;;;;;26.10;14.77;;;;;;;;;;4983794;28;20029;-86
2021/04/23 07:33:15;;;;;;;14.52;6.22;;;;;;;;;;4971528;28;20026;-86
2021/04/23 07:36:00;;;;;;;14.43;5.38;;;;;;;;;;4976908;28;20632;-89
2021/04/23 07:38:46;;;;;;;48.15;6.63;;;;;;;;;;4980372;28;20026;-85
2021/04/23 07:41:31;;;;;;;15.10;4.95;;;;;;;;;;4986668;28;20034;-88
2021/04/23 07:44:16;;;;;;;16.60;5.68;;;;;;;;;;4974688;28;20030;-81
2021/04/23 07:47:01;;;;;;;13.25;5.25;;;;;;;;;;4980296;28;21938;-80
2021/04/23 07:49:50;;;;;;;14.05;5.00;;;;;;;;;;4983536;28;20031;-82
2021/04/23 07:52:35;;;;;;;18.88;6.35;;;;;;;;;;4986144;28;20018;-82
2021/04/23 07:55:22;;;;;;;15.73;5.65;;;;;;;;;;4985948;28;20070;-82
2021/04/23 07:58:07;;;;;;;15.13;5.80;;;;;;;;;;4996689;28;20026;-83
2021/04/23 08:00:53;;;;;;;22.27;12.25;;;;;;;;;;4982824;28;20098;-82
2021/04/23 08:03:38;;;;;;;21.30;10.73;;;;;;;;;;4975317;28;20372;-81
2021/04/23 08:06:24;;;;;;;13.40;5.10;;;;;;;;;;4984410;28;20036;-81
2021/04/23 08:09:09;;;;;;;13.00;4.93;;;;;;;;;;4978610;28;20041;-81
2021/04/23 08:11:54;;;;;;;19.70;6.20;;;;;;;;;;4985371;28;20477;-81
2021/04/23 08:14:40;;;;;;;15.95;5.88;;;;;;;;;;4976366;28;20142;-81
2021/04/23 08:17:25;;;;;;;14.52;5.85;;;;;;;;;;4962188;28;20524;-82
2021/04/23 08:20:11;;;;;;;13.32;5.68;;;;;;;;;;4975746;28;20037;-81
2021/04/23 08:22:58;;;;;;;17.35;6.22;;;;;;;;;;4971701;28;20030;-81
2021/04/23 08:25:43;;;;;;;14.02;4.97;;;;;;;;;;4977257;28;20033;-81
2021/04/23 08:28:29;;;;;;;16.83;6.20;;;;;;;;;;4984944;28;20519;-80
2021/04/23 08:31:15;;;;;;;14.23;5.88;;;;;;;;;;4977777;28;20026;-80
2021/04/23 08:34:00;;;;;;;16.50;6.57;;;;;;;;;;4976904;28;20498;-79
2021/04/23 08:36:45;;;;;;;16.42;8.60;;;;;;;;;;4985013;28;20039;-80
2021/04/23 08:39:30;;;;;;;17.60;7.32;;;;;;;;;;4979410;28;20080;-80
2021/04/23 08:42:51;;;;;;;13.35;6.75;;;;;;;;;;4978193;28;20033;-81
2021/04/23 08:45:40;;;;;;;14.95;6.32;;;;;;;;;;4969053;28;20101;-80
2021/04/23 08:48:27;;;;;;;15.27;7.25;;;;;;;;;;4984062;28;20019;-81
2021/04/23 08:51:12;;;;;;;15.98;5.97;;;;;;;;;;4978287;28;20030;-80
2021/04/23 08:53:58;;;;;;;20.80;6.85;;;;;;;;;;4979222;28;20058;-80
2021/04/23 08:56:44;;;;;;;14.23;6.28;;;;;;;;;;4973704;28;20076;-82
2021/04/23 08:59:29;;;;;;;15.40;6.65;;;;;;;;;;4986296;28;20251;-83
2021/04/23 09:02:14;;;;;;;14.95;6.03;;;;;;;;;;4985317;28;20440;-85
2021/04/23 09:05:00;;;;;;;19.35;11.10;;;;;;;;;;4976299;28;20034;-84
2021/04/23 09:08:03;;;;;;;18.48;7.32;;;;;;;;;;4978818;28;20161;-83
2021/04/23 09:10:48;;;;;;;15.27;6.93;;;;;;;;;;4967386;28;20050;-83
2021/04/23 09:13:33;;;;;;;13.43;5.60;;;;;;;;;;4981750;28;20026;-85
2021/04/23 09:16:20;;;;;;;18.90;6.50;;;;;;;;;;4981079;28;20464;-84
2021/04/23 09:19:18;;;;;;;17.83;6.15;;;;;;;;;;4992736;28;20600;-83
2021/04/23 09:22:07;;;;;;;15.32;5.60;;;;;;;;;;4976506;28;20066;-83
2021/04/23 09:24:59;;;;;;;12.80;5.40;;;;;;;;;;4979811;28;20093;-83
2021/04/23 09:27:49;;;;;;;11.50;4.88;;;;;;;;;;4980704;28;20358;-83
2021/04/23 09:30:34;;;;;;;14.95;5.90;;;;;;;;;;4978602;28;20437;-83
2021/04/23 09:33:24;;;;;;;14.88;6.20;;;;;;;;;;4983462;28;20120;-80
2021/04/23 09:36:12;;;;;;;18.10;8.80;;;;;;;;;;4977744;28;20069;-80
2021/04/23 09:39:02;;;;;;;18.17;5.95;;;;;;;;;;4978095;28;20097;-79
2021/04/23 09:41:59;;;;;;;11.02;5.30;;;;;;;;;;4976521;28;20026;-80
2021/04/23 09:44:45;;;;;;;13.05;6.35;;;;;;;;;;4982061;28;21334;-79
2021/04/23 09:47:35;;;;;;;18.25;6.70;;;;;;;;;;4984552;28;20485;-78
2021/04/23 09:50:21;;;;;;;12.38;5.75;;;;;;;;;;4979423;28;20041;-79
2021/04/23 09:53:07;;;;;;;13.13;5.95;;;;;;;;;;4975575;28;20085;-79
2021/04/23 09:55:54;;;;;;;16.92;6.97;;;;;;;;;;4979192;28;20062;-79
2021/04/23 09:58:39;;;;;;;19.30;6.68;;;;;;;;;;4973831;28;20026;-80
2021/04/23 10:01:45;;;;;;;15.10;6.63;;;;;;;;;;4980999;28;20520;-79
2021/04/23 10:04:30;;;;;;;12.23;6.18;;;;;;;;;;4983684;28;20467;-79
2021/04/23 10:07:28;;;;;;;14.23;5.30;;;;;;;;;;4982770;28;20072;-80
2021/04/23 10:10:24;;;;;;;14.93;5.75;;;;;;;;;;4983477;28;20091;-80
2021/04/23 10:13:11;;;;;;;14.60;6.18;;;;;;;;;;4986406;28;20041;-79
2021/04/23 10:15:57;;;;;;;15.85;7.13;;;;;;;;;;4980846;28;20022;-81
2021/04/23 10:18:42;;;;;;;14.80;5.47;;;;;;;;;;4976145;28;20026;-80
2021/04/23 10:21:28;;;;;;;15.82;7.82;;;;;;;;;;4981546;28;20030;-82
2021/04/23 10:24:15;;;;;;;13.13;6.72;;;;;;;;;;4972580;28;20025;-82
2021/04/23 10:27:00;;;;;;;16.40;6.07;;;;;;;;;;4977188;28;20041;-83
2021/04/23 10:29:47;;;;;;;13.07;5.55;;;;;;;;;;4980750;28;20030;-82
2021/04/23 10:32:33;;;;;;;11.38;5.65;;;;;;;;;;4973150;28;20544;-81
2021/04/23 10:35:18;;;;;;;18.60;6.63;;;;;;;;;;4965232;28;20018;-79
2021/04/23 10:38:08;;;;;;;21.73;6.18;;;;;;;;;;4982962;28;20037;-79
2021/04/23 10:40:58;;;;;;;13.80;6.28;;;;;;;;;;4978750;28;20054;-80
2021/04/23 10:43:54;;;;;;;16.40;6.30;;;;;;;;;;4989333;28;20022;-79
2021/04/23 10:46:47;;;;;;;13.80;5.57;;;;;;;;;;4964519;28;20026;-80
2021/04/23 10:49:32;;;;;;;15.82;5.82;;;;;;;;;;4978770;28;20423;-79
2021/04/23 10:52:18;;;;;;;10.82;6.13;;;;;;;;;;4971416;28;20062;-78
2021/04/23 10:55:07;;;;;;;14.65;6.18;;;;;;;;;;4980237;28;20501;-78
2021/04/23 10:57:53;;;;;;;12.57;4.88;;;;;;;;;;4983811;28;20033;-77
2021/04/23 11:00:38;;;;;;;16.15;6.07;;;;;;;;;;4968949;28;20030;-78
2021/04/23 11:03:25;;;;;;;12.05;5.18;;;;;;;;;;4976073;28;20026;-78
2021/04/23 11:06:13;;;;;;;14.07;5.20;;;;;;;;;;4979121;28;20046;-78
2021/04/23 11:08:58;;;;;;;17.80;5.30;;;;;;;;;;4976411;28;20496;-78
2021/04/23 11:12:03;;;;;;;15.98;5.30;;;;;;;;;;4980992;28;20026;-79
2021/04/23 11:14:48;;;;;;;9.40;5.03;;;;;;;;;;4976821;28;20056;-76
2021/04/23 11:17:34;;;;;;;8.77;5.10;;;;;;;;;;4986424;28;20018;-77
2021/04/23 11:20:26;;;;;;;13.40;5.65;;;;;;;;;;4983370;28;20030;-77
2021/04/23 11:23:11;;;;;;;14.35;5.55;;;;;;;;;;4968910;28;20021;-77
2021/04/23 11:25:58;;;;;;;16.05;4.85;;;;;;;;;;4983547;28;20038;-76
2021/04/23 11:29:03;;;;;;;14.98;5.65;;;;;;;;;;4986558;28;20030;-76
2021/04/23 11:32:08;;;;;;;12.15;5.82;;;;;;;;;;4996946;28;20400;-75
2021/04/23 11:34:54;;;;;;;12.32;4.80;;;;;;;;;;4975713;28;20389;-75
2021/04/23 11:37:42;;;;;;;9.13;4.72;;;;;;;;;;4998504;28;20077;-77
2021/04/23 11:40:29;;;;;;;15.45;5.80;;;;;;;;;;4985656;28;20477;-77
2021/04/23 11:43:34;;;;;;;14.85;4.45;;;;;;;;;;4987138;28;20099;-77
2021/04/23 11:46:20;;;;;;;10.20;4.43;;;;;;;;;;4983631;28;20033;-77
2021/04/23 11:49:13;;;;;;;13.23;5.93;;;;;;;;;;4998532;28;20021;-77
2021/04/23 11:52:01;;;;;;;15.25;6.07;;;;;;;;;;4990932;28;20037;-77
2021/04/23 11:54:46;;;;;;;14.82;5.60;;;;;;;;;;4983014;28;20404;-76
2021/04/23 11:57:31;;;;;;;10.43;5.03;;;;;;;;;;4988230;28;20029;-77
2021/04/23 12:00:22;;;;;;;11.88;6.20;;;;;;;;;;4986801;28;20072;-77
2021/04/23 12:03:08;;;;;;;16.83;5.80;;;;;;;;;;4981712;28;20374;-78
2021/04/23 12:05:55;;;;;;;11.35;5.13;;;;;;;;;;4974602;28;20358;-77
2021/04/23 12:08:40;;;;;;;14.40;7.00;;;;;;;;;;4977438;28;20061;-76
2021/04/23 12:11:25;;;;;;;10.82;4.22;;;;;;;;;;4985527;28;20476;-76
2021/04/23 12:14:11;;;;;;;17.73;5.47;;;;;;;;;;4976681;28;20647;-76
2021/04/23 12:16:56;;;;;;;11.90;5.65;;;;;;;;;;4982171;28;20034;-77
2021/04/23 12:19:41;;;;;;;17.05;6.10;;;;;;;;;;4973209;28;20815;-76
2021/04/23 12:22:37;;;;;;;10.32;5.53;;;;;;;;;;4969524;28;20337;-77
2021/04/23 12:25:30;;;;;;;14.35;5.20;;;;;;;;;;4973326;28;20024;-77
2021/04/23 12:28:15;;;;;;;12.70;5.57;;;;;;;;;;4975621;28;20036;-78
2021/04/23 12:31:18;;;;;;;11.15;4.90;;;;;;;;;;4980545;28;20030;-77
2021/04/23 12:34:05;;;;;;;10.80;5.40;;;;;;;;;;4978875;28;20130;-77
2021/04/23 12:36:51;;;;;;;11.93;5.40;;;;;;;;;;4994160;28;20100;-77
2021/04/23 12:39:37;;;;;;;13.45;5.68;;;;;;;;;;4982350;28;20485;-77
2021/04/23 12:42:26;;;;;;;12.13;4.65;;;;;;;;;;4983806;28;20041;-76
2021/04/23 12:45:11;;;;;;;12.90;4.75;;;;;;;;;;4979654;28;20032;-76
2021/04/23 12:47:56;;;;;;;10.43;4.75;;;;;;;;;;4971375;28;20034;-77
2021/04/23 12:50:46;;;;;;;9.57;4.50;;;;;;;;;;4980652;28;20026;-76
2021/04/23 12:53:31;;;;;;;10.60;4.03;;;;;;;;;;4988348;28;20033;-78
2021/04/23 12:56:21;;;;;;;10.32;4.03;;;;;;;;;;4979543;28;20338;-76
2021/04/23 12:59:07;;;;;;;9.07;3.90;;;;;;;;;;4974980;28;20034;-78
2021/04/23 13:01:52;;;;;;;14.15;5.25;;;;;;;;;;4978601;28;20014;-77
2021/04/23 13:04:37;;;;;;;14.20;5.15;;;;;;;;;;4970227;28;20026;-78
2021/04/23 13:07:23;;;;;;;9.57;3.95;;;;;;;;;;4985416;28;20022;-77
2021/04/23 13:10:09;;;;;;;7.85;3.92;;;;;;;;;;4975454;28;20091;-76
2021/04/23 13:13:00;;;;;;;8.73;3.63;;;;;;;;;;4979943;28;20029;-77
2021/04/23 13:15:47;;;;;;;11.80;3.53;;;;;;;;;;4980529;28;20069;-77
2021/04/23 13:18:33;;;;;;;10.48;3.97;;;;;;;;;;4981181;28;20031;-77
2021/04/23 13:21:18;;;;;;;9.73;3.50;;;;;;;;;;4972677;28;20034;-79
2021/04/23 13:24:17;;;;;;;8.70;3.75;;;;;;;;;;4978812;28;20332;-80
2021/04/23 13:27:23;;;;;;;13.30;4.85;;;;;;;;;;4976882;28;20030;-79
2021/04/23 13:30:09;;;;;;;11.82;4.95;;;;;;;;;;4987733;28;20066;-80
2021/04/23 13:32:59;;;;;;;12.77;5.38;;;;;;;;;;4975721;28;20117;-79
2021/04/23 13:35:46;;;;;;;10.98;4.57;;;;;;;;;;4969126;28;20487;-79
2021/04/23 13:38:51;;;;;;;9.15;4.43;;;;;;;;;;4969002;28;20018;-79
2021/04/23 13:41:38;;;;;;;11.02;4.43;;;;;;;;;;4973564;28;21336;-80
2021/04/23 13:44:25;;;;;;;12.48;4.78;;;;;;;;;;4981556;28;20472;-78
2021/04/23 13:47:12;;;;;;;10.48;5.00;;;;;;;;;;4977268;28;20030;-78
2021/04/23 13:50:07;;;;;;;11.38;4.97;;;;;;;;;;4976584;28;20380;-79
2021/04/23 13:52:52;;;;;;;11.93;5.13;;;;;;;;;;4982094;28;20498;-79
2021/04/23 13:55:38;;;;;;;12.60;5.60;;;;;;;;;;4972076;28;20122;-78
2021/04/23 13:58:23;;;;;;;9.32;4.95;;;;;;;;;;4977540;28;20116;-80
2021/04/23 14:01:08;;;;;;;13.65;4.70;;;;;;;;;;4972439;28;20027;-79
2021/04/23 14:03:53;;;;;;;11.75;4.22;;;;;;;;;;4982142;28;20037;-78
2021/04/23 14:06:39;;;;;;;26.45;15.80;;;;;;;;;;4972343;28;20026;-79
2021/04/23 14:09:25;;;;;;;12.40;4.97;;;;;;;;;;4980339;28;20112;-79
2021/04/23 14:12:11;;;;;;;15.02;4.15;;;;;;;;;;4991550;28;20029;-79
2021/04/23 14:14:56;;;;;;;8.35;4.20;;;;;;;;;;4964120;28;20389;-78
2021/04/23 14:17:42;;;;;;;11.57;4.60;;;;;;;;;;4961296;28;20054;-80
2021/04/23 14:20:27;;;;;;;9.25;4.38;;;;;;;;;;4984540;28;20118;-82
2021/04/23 14:23:13;;;;;;;8.73;4.38;;;;;;;;;;4977333;28;20021;-80
2021/04/23 14:25:58;;;;;;;9.57;4.43;;;;;;;;;;4971139;28;20034;-79
2021/04/23 14:28:45;;;;;;;12.50;4.35;;;;;;;;;;4965031;28;20037;-80
2021/04/23 14:31:30;;;;;;;10.60;4.43;;;;;;;;;;4974190;28;20044;-80
2021/04/23 14:34:16;;;;;;;12.15;4.55;;;;;;;;;;4975191;28;20026;-81
2021/04/23 14:37:01;;;;;;;9.60;4.68;;;;;;;;;;4985490;28;20095;-85
2021/04/23 14:39:49;;;;;;;12.00;4.82;;;;;;;;;;4968772;28;20142;-83
2021/04/23 14:43:01;;;;;;;6.90;3.70;;;;;;;;;;4982936;28;20077;-84
2021/04/23 14:45:46;;;;;;;9.88;4.40;;;;;;;;;;4978759;28;20036;-82
2021/04/23 14:48:32;;;;;;;10.90;5.50;;;;;;;;;;4977342;28;20018;-81
2021/04/23 14:51:17;;;;;;;13.25;4.88;;;;;;;;;;4981935;28;20384;-83
2021/04/23 14:54:02;;;;;;;11.63;5.03;;;;;;;;;;4979570;28;20443;-82
2021/04/23 14:56:48;;;;;;;11.65;4.82;;;;;;;;;;4987532;28;20141;-82
2021/04/23 14:59:33;;;;;;;14.65;5.30;;;;;;;;;;4990221;28;20091;-82
2021/04/23 15:02:18;;;;;;;10.65;5.18;;;;;;;;;;4981130;28;20026;-83
2021/04/23 15:05:04;;;;;;;11.07;5.47;;;;;;;;;;4980613;28;20472;-84
2021/04/23 15:07:49;;;;;;;14.38;7.10;;;;;;;;;;4962371;28;20029;-83
2021/04/23 15:10:35;;;;;;;12.00;5.68;;;;;;;;;;4979665;28;20465;-83
2021/04/23 15:13:22;;;;;;;12.48;4.78;;;;;;;;;;4984383;28;20026;-83
2021/04/23 15:16:08;;;;;;;9.93;5.38;;;;;;;;;;4976960;28;20034;-83
2021/04/23 15:18:53;;;;;;;11.73;5.22;;;;;;;;;;4974611;28;20026;-83
2021/04/23 15:21:39;;;;;;;12.05;5.35;;;;;;;;;;4977848;28;20026;-83
2021/04/23 15:24:25;;;;;;;11.10;5.45;;;;;;;;;;4985115;28;20072;-83
2021/04/23 15:27:10;;;;;;;14.13;8.48;;;;;;;;;;4978215;28;20075;-84
2021/04/23 15:29:55;;;;;;;23.80;16.60;;;;;;;;;;4977886;28;20058;-83
2021/04/23 15:32:41;;;;;;;11.75;5.20;;;;;;;;;;4977824;28;20016;-84
2021/04/23 15:35:26;;;;;;;15.48;5.00;;;;;;;;;;4982570;28;20734;-83
2021/04/23 15:38:12;;;;;;;18.13;5.88;;;;;;;;;;4985979;28;20560;-83
2021/04/23 15:40:57;;;;;;;13.57;5.18;;;;;;;;;;4980709;28;20026;-84
2021/04/23 15:43:43;;;;;;;11.23;5.00;;;;;;;;;;4981465;28;20033;-82
2021/04/23 15:46:28;;;;;;;10.38;4.78;;;;;;;;;;4981981;28;20068;-81
2021/04/23 15:49:13;;;;;;;12.15;5.72;;;;;;;;;;4978684;28;20837;-82
2021/04/23 15:51:59;;;;;;;12.80;4.50;;;;;;;;;;4976557;28;20077;-83
2021/04/23 15:54:44;;;;;;;12.07;4.93;;;;;;;;;;4983453;28;20109;-82
2021/04/23 15:57:30;;;;;;;12.90;4.50;;;;;;;;;;4971200;28;20520;-83
2021/04/23 16:00:18;;;;;;;12.05;4.63;;;;;;;;;;4982177;28;20037;-84
2021/04/23 16:03:04;;;;;;;11.60;5.40;;;;;;;;;;4982161;28;20022;-82
2021/04/23 16:05:49;;;;;;;12.20;4.88;;;;;;;;;;4998914;28;20026;-85
2021/04/23 16:08:35;;;;;;;10.00;4.30;;;;;;;;;;4992263;28;20081;-83
2021/04/23 16:11:20;;;;;;;12.23;5.38;;;;;;;;;;4993106;28;20065;-83
2021/04/23 16:14:06;;;;;;;12.50;5.15;;;;;;;;;;4986907;28;20061;-84
2021/04/23 16:16:51;;;;;;;12.45;4.85;;;;;;;;;;4986996;28;20034;-83
2021/04/23 16:19:36;;;;;;;12.20;6.13;;;;;;;;;;4979278;28;20022;-82
2021/04/23 16:22:21;;;;;;;12.85;5.80;;;;;;;;;;4985420;28;20761;-83
2021/04/23 16:25:08;;;;;;;10.95;5.45;;;;;;;;;;4986825;28;20026;-86
2021/04/23 16:27:53;;;;;;;12.38;5.20;;;;;;;;;;4978282;28;20011;-84
2021/04/23 16:30:39;;;;;;;12.48;5.35;;;;;;;;;;4976944;28;20030;-83
2021/04/23 16:33:24;;;;;;;9.07;4.70;;;;;;;;;;4979795;28;20026;-83
2021/04/23 16:36:09;;;;;;;13.63;5.03;;;;;;;;;;4980433;28;20029;-83
2021/04/23 16:38:54;;;;;;;10.38;5.75;;;;;;;;;;4976044;28;20442;-83
2021/04/23 16:41:40;;;;;;;11.10;5.15;;;;;;;;;;4962986;28;20058;-83
2021/04/23 16:44:25;;;;;;;10.32;5.15;;;;;;;;;;4972619;28;20022;-83